ロサンゼルス の空港の天気 - METARとTAF

ロサンゼルス国際空港 ( KLAX / LAX ) - アメリカ カリフォルニア州ロサンゼルス
飛行場実況気象(Metar)
観測時間08/22 08:53 PDT (08/22 15:53 UTC)
風向・風速東南東 3m/s
視程9650m
天気現象煙霧
全天の4割程度の雲 雲底高度 300m
気温22.2℃
湿度73%
気圧1008.8hPa
METARKLAX 221553Z 11006KT 6SM HZ SCT010 22/17 A2980 RMK AO2 SLP088 SCT V BKN T02220172
過去の天気等 Google飛行場航空写真 Wunderground天気予報

過去48時間のMETAR

飛行場予報(TAF)
発表時間: 8/22 07:47 PDT (8/22 14:47 UTC)
予報対象時間: 22日8時 PDT ~ 23日11時 PDT
風向・風速東南東 4m/s
視程4830m
天気現象もや
全天の8割程度の雲 雲底高度 300m
22日10時 PDT から
風向・風速南西 4m/s
視程10km以上
全天の4割程度の雲 雲底高度 300m
22日13時 PDT から
風向・風速西南西 5m/s
視程10km以上
なし
22日20時 PDT から
風向・風速不定 2m/s
視程10km以上
全天の8割程度の雲 雲底高度 240m
23日1時 PDT から
風向・風速東南東 4m/s
視程10km以上
全天を覆う雲 雲底高度 370m
23日6時 PDT から
風向・風速東南東 7m/s
視程10km以上
全天を覆う雲 雲底高度 460m
KLAX 221447Z 2215/2318 12007KT 3SM BR BKN010
FM221700 22008KT P6SM SCT010
FM222000 25010KT P6SM SKC
FM230300 VRB03KT P6SM BKN008
FM230800 11007KT P6SM OVC012
FM231300 12014KT P6SM OVC015